Terminal Aerodrome Forecast
Issued by NWS Louisville, KY

Home | Current Version | Previous Version | Text Only | Print | Product List | Glossary On
Versions: 1 2 3 4 5 6 7 8 9 10 11 12
000
FTUS43 KLMK 201100
TAFBWG
TAF
KBWG 201120Z 2012/2112 00000KT P6SM FEW250
     FM201400 VRB04KT P6SM FEW040 FEW250
     FM210000 VRB03KT P6SM BKN250=

USA.gov is the U.S. government's official web portal to all federal, state and local government web resources and services.